• Join FlightAware (Why Join?)
  • Login
  • US Flag 
09:44PM EDT


 

Airport Tracker/Info


-or-


 

Live Flight TrackerFlight Track Log ✈ EJA396 ✈ 25-Jul-2013 ✈ KLGA - KMSP

Flight Track Log - Related Links

Times and Time Zones

All times are in EDT time to prevent confusion due to time zone crossing. See the EJA396 flight status page for this flight to view local times or setup timezone preferences in your user account.

Time Position Orientation Groundspeed Altitude Reporting Facility
EDT Latitude Longitude Course Direction KTS MPH feet Rate Location/Type
01:45PM 40.7667 -73.8333 72° East 166 191 2,400  Level New York TRACON
01:46PM 40.7833 -73.7667 72° East 246 283 6,200 3,300 Climbing New York TRACON
01:47PM 40.8500 -73.7667 360° North 293 337 9,000 1,380 Climbing New York TRACON
01:48PM 40.9167 -73.8333 323° Northwest 309 356 9,000 600 Level New York TRACON
01:49PM 40.9833 -73.9167 317° Northwest 309 356 10,200 2,100 Climbing New York TRACON
01:50PM 41.0333 -74.0000 309° West 354 407 13,200 2,100 Climbing New York TRACON
01:52PM 41.1800 -74.1425 324° Northwest 390 449 16,000 1,020 Climbing New York Center
01:53PM 41.2592 -74.2211 323° Northwest 395 455 16,000  Level New York Center
01:54PM 41.3564 -74.3117 325° Northwest 395 455 16,000 60 Level New York Center
01:55PM 41.4303 -74.4097 315° West 395 455 16,200 840 Climbing New York Center
01:56PM 41.4844 -74.5428 299° West 397 457 17,800 1,620 Climbing New York Center
01:57PM 41.5428 -74.6706 301° West 411 473 19,500 1,980 Climbing New York Center
01:58PM 41.5989 -74.7989 300° West 411 473 21,800 2,100 Climbing New York Center
01:59PM 41.6433 -74.9014 300° West 411 473 23,800 2,400 Climbing New York Center
02:00PM 41.7086 -75.0583 299° West 411 473 26,700 2,400 Climbing New York Center
02:01PM 41.7642 -75.1897 300° West 411 473 28,700 1,740 Climbing New York Center
02:02PM 41.8214 -75.3244 300° West 411 473 30,200 1,440 Climbing New York Center
02:03PM 41.8806 -75.4675 299° West 419 482 31,700 1,500 Climbing New York Center
02:04PM 41.9414 -75.6086 300° West 427 491 33,200 1,500 Climbing New York Center
02:06PM 42.0375 -75.8492 298° West 419 482 35,700 1,380 Climbing Cleveland Center
02:07PM 42.0933 -75.9878 299° West 425 489 37,000 1,260 Climbing Cleveland Center
02:07PM 42.1167 -76.0667 292° West 390 449 37,800 1,020 Climbing Toronto Center
02:09PM 42.2028 -76.2856 298° West 435 501 39,100 900 Climbing Cleveland Center
02:10PM 42.2497 -76.4256 294° West 427 491 40,000 420 Climbing Cleveland Center
02:11PM 42.2967 -76.5742 293° West 427 491 40,000  Level Cleveland Center
02:12PM 42.3456 -76.7256 294° West 433 498 40,000  Level Cleveland Center
02:13PM 42.3922 -76.8775 293° West 433 498 40,000  Level Cleveland Center
02:14PM 42.4408 -77.0294 293° West 433 498 40,000  Level Cleveland Center
02:15PM 42.4872 -77.1817 292° West 438 504 40,000  Level Cleveland Center
02:16PM 42.5333 -77.3342 292° West 438 504 40,000  Level Cleveland Center
02:17PM 42.5747 -77.4731 292° West 444 511 40,000  Level Cleveland Center
02:18PM 42.6247 -77.6286 294° West 451 519 40,000  Level Cleveland Center
02:19PM 42.6700 -77.7792 292° West 444 511 40,000  Level Cleveland Center
02:20PM 42.7197 -77.9381 293° West 449 517 40,000  Level Cleveland Center
02:21PM 42.7647 -78.0889 292° West 449 517 40,000  Level Cleveland Center
02:22PM 42.8117 -78.2425 293° West 449 517 40,000  Level Cleveland Center
02:23PM 42.8564 -78.3967 292° West 449 517 40,000  Level Cleveland Center
02:24PM 42.9008 -78.5511 291° West 449 517 40,000  Level Cleveland Center
02:25PM 42.9431 -78.7056 291° West 449 517 40,000  Level Cleveland Center
02:26PM 42.9789 -78.8664 287° West 444 511 40,000  Level Cleveland Center
02:26PM 43.0000 -78.9667 286° West 440 506 40,000  Level Toronto Center
02:27PM 43.0333 -79.1333 285° West 440 506 40,000  Level Toronto Center
02:28PM 43.0667 -79.2833 287° West 440 506 40,000  Level Toronto Center
02:29PM 43.1000 -79.4500 285° West 440 506 40,000  Level Toronto Center
02:30PM 43.1333 -79.6167 285° West 440 506 40,000  Level Toronto Center
02:31PM 43.1667 -79.7667 287° West 440 506 40,000  Level Toronto Center
02:32PM 43.2000 -79.9333 285° West 430 495 40,000  Level Toronto Center
02:33PM 43.2167 -80.0667 280° West 430 495 40,000  Level Toronto Center
02:34PM 43.2500 -80.2500 284° West 430 495 40,000  Level Toronto Center
02:35PM 43.2833 -80.3833 289° West 430 495 40,000  Level Toronto Center
02:36PM 43.3167 -80.5500 285° West 430 495 40,000  Level Toronto Center
02:37PM 43.3500 -80.7333 284° West 430 495 40,000  Level Toronto Center
02:38PM 43.3667 -80.8667 280° West 430 495 40,000  Level Toronto Center
02:39PM 43.4000 -81.0333 285° West 430 495 40,000  Level Toronto Center
02:40PM 43.4333 -81.2000 285° West 430 495 40,000  Level Toronto Center
02:41PM 43.4667 -81.3500 287° West 430 495 40,000  Level Toronto Center
02:42PM 43.5000 -81.5167 285° West 430 495 40,000  Level Toronto Center
02:43PM 43.5333 -81.6500 289° West 420 483 40,000  Level Toronto Center
02:44PM 43.5667 -81.8167 285° West 420 483 40,000  Level Toronto Center
02:45PM 43.5833 -81.9833 278° West 420 483 40,000  Level Toronto Center
02:46PM 43.6167 -82.1167 289° West 420 483 40,000  Level Toronto Center
02:47PM 43.6500 -82.2833 286° West 410 472 40,000  Level Toronto Center
02:48PM 43.6667 -82.4500 278° West 420 483 40,000  Level Toronto Center
02:49PM 43.7000 -82.6000 287° West 420 483 40,000  Level Toronto Center
02:50PM 43.7361 -82.7414 290° West 416 479 40,000  Level Minneapolis Center
02:51PM 43.7631 -82.8964 284° West 417 480 40,000  Level Minneapolis Center
02:52PM 43.7900 -83.0514 284° West 416 479 40,000  Level Minneapolis Center
02:53PM 43.8172 -83.2056 284° West 415 478 40,000  Level Minneapolis Center
02:54PM 43.8475 -83.3900 283° West 413 475 40,000  Level Minneapolis Center
02:55PM 43.8733 -83.5422 283° West 411 473 40,000  Level Minneapolis Center
02:56PM 43.9003 -83.6981 284° West 413 475 40,000  Level Minneapolis Center
02:57PM 43.9236 -83.8514 282° West 413 475 40,000  Level Minneapolis Center
02:59PM 43.9494 -84.0056 283° West 411 473 40,000  Level Minneapolis Center
03:00PM 43.9811 -84.1925 283° West 414 476 40,000  Level Minneapolis Center
03:01PM 44.0053 -84.3489 282° West 415 478 40,000  Level Minneapolis Center
03:02PM 44.0289 -84.5031 282° West 412 474 40,000  Level Minneapolis Center
03:03PM 44.0547 -84.6578 283° West 412 474 40,000  Level Minneapolis Center
03:04PM 44.0781 -84.8122 282° West 410 472 40,000  Level Minneapolis Center
03:05PM 44.1064 -85.0000 282° West 413 475 40,000  Level Minneapolis Center
03:06PM 44.1294 -85.1542 282° West 410 472 40,000  Level Minneapolis Center
03:07PM 44.1536 -85.3092 282° West 410 472 40,000  Level Minneapolis Center
03:08PM 44.1761 -85.4653 281° West 411 473 40,000  Level Minneapolis Center
03:09PM 44.1997 -85.6200 282° West 410 472 40,000  Level Minneapolis Center
03:10PM 44.2222 -85.7758 281° West 411 473 40,000  Level Minneapolis Center
03:11PM 44.2444 -85.9300 281° West 407 468 40,000  Level Minneapolis Center
03:12PM 44.2708 -86.1164 281° West 406 467 40,000  Level Minneapolis Center
03:13PM 44.2928 -86.2717 281° West 408 470 40,000  Level Minneapolis Center
03:14PM 44.3144 -86.4258 281° West 404 465 40,000  Level Minneapolis Center
03:15PM 44.3356 -86.5803 281° West 404 465 40,000  Level Minneapolis Center
03:16PM 44.3572 -86.7336 281° West 402 463 40,000  Level Minneapolis Center
03:17PM 44.3772 -86.8889 280° West 404 465 40,000  Level Minneapolis Center
03:18PM 44.3986 -87.0436 281° West 404 465 40,000  Level Minneapolis Center
03:19PM 44.4228 -87.2275 280° West 408 470 40,000  Level Minneapolis Center
03:20PM 44.4436 -87.3825 281° West 407 468 40,000  Level Minneapolis Center
03:21PM 44.4633 -87.5414 280° West 405 466 40,000 -300 Level Minneapolis Center
03:22PM 44.4833 -87.6953 280° West 404 465 39,500 -780 Descending Minneapolis Center
03:23PM 44.5025 -87.8447 280° West 392 451 38,500 -1,020 Descending Minneapolis Center
03:24PM 44.5217 -88.0064 279° West 375 432 37,400 -1,020 Descending Minneapolis Center
03:25PM 44.5394 -88.1442 280° West 366 421 36,400 -720 Descending Minneapolis Center
03:26PM 44.5550 -88.2778 279° West 353 406 36,000 -240 Descending Minneapolis Center
03:28PM 44.5725 -88.4178 280° West 361 415 36,000  Level Minneapolis Center
03:29PM 44.5919 -88.5839 279° West 370 426 36,000  Level Minneapolis Center
03:30PM 44.6086 -88.7253 279° West 369 425 36,000  Level Minneapolis Center
03:31PM 44.6247 -88.8644 279° West 365 420 36,000  Level Minneapolis Center
03:32PM 44.6414 -89.0047 280° West 365 420 36,000 -360 Level Minneapolis Center
03:33PM 44.6592 -89.1669 279° West 361 415 35,300 -840 Descending Minneapolis Center
03:34PM 44.6758 -89.3031 280° West 357 411 34,300 -1,020 Descending Minneapolis Center
03:35PM 44.6894 -89.4444 278° West 361 415 33,300 -960 Descending Minneapolis Center
03:36PM 44.7061 -89.5847 280° West 364 419 32,300 -660 Descending Minneapolis Center
03:37PM 44.7219 -89.7300 279° West 372 428 32,000 -180 Descending Minneapolis Center
03:38PM 44.7400 -89.8950 279° West 369 425 32,000  Level Minneapolis Center
03:39PM 44.7550 -90.0353 279° West 365 420 32,000  Level Minneapolis Center
03:40PM 44.7700 -90.1742 279° West 361 415 32,000  Level Minneapolis Center
03:41PM 44.7783 -90.3128 275° West 358 412 32,000 -300 Level Minneapolis Center
03:42PM 44.7869 -90.4542 275° West 360 414 31,500 -900 Descending Minneapolis Center
03:43PM 44.7969 -90.6169 275° West 380 437 30,200 -1,380 Descending Minneapolis Center
03:44PM 44.8056 -90.7717 275° West 396 456 28,700 -1,680 Descending Minneapolis Center
03:45PM 44.8144 -90.9264 275° West 398 458 26,800 -1,800 Descending Minneapolis Center
03:46PM 44.8225 -91.0817 274° West 399 459 25,000 -1,980 Descending Minneapolis Center
03:47PM 44.8328 -91.2628 275° West 391 450 22,700 -1,920 Descending Minneapolis Center
03:48PM 44.8408 -91.4067 275° West 378 435 21,100 -1,680 Descending Minneapolis Center
03:49PM 44.8481 -91.5478 274° West 366 421 19,300 -1,740 Descending Minneapolis Center
03:50PM 44.8550 -91.6867 274° West 360 414 17,600 -1,620 Descending Minneapolis Center
03:52PM 44.8625 -91.8489 274° West 349 402 15,700 -1,560 Descending Minneapolis Center
03:53PM 44.8686 -91.9761 274° West 329 379 14,100 -1,680 Descending Minneapolis Center
03:54PM 44.8753 -92.1272 274° West 322 371 12,300 -1,680 Descending Minneapolis Center
03:55PM 44.8803 -92.2500 273° West 315 362 10,700 -1,140 Descending Minneapolis Center
03:56PM 44.8528 -92.3592 250° West 321 369 10,000 -720 Descending Minneapolis Center
03:57PM 44.8183 -92.4589 244° Southwest 277 319 9,300 -960 Descending Minneapolis Center
03:58PM 44.8186 -92.5597 270° West 260 299 8,100 -1,440 Descending Minneapolis Center
03:59PM 44.8186 -92.6814 270° West 261 300 6,400 -1,620 Descending Minneapolis Center
04:00PM 44.8178 -92.7833 269° West 261 300 4,700 -1,200 Descending Minneapolis Center
04:01PM 44.8172 -92.8733 270° West 234 269 4,000 -360 Descending Minneapolis Center
04:02PM 44.8164 -92.9658 269° West 237 273 4,000 -420 Level Minneapolis Center
04:03PM 44.8153 -93.0519 269° West 223 257 3,200 -900 Descending Minneapolis Center
04:04PM 44.8381 -93.1200 295° West 161 185 2,200 -840 Descending Minneapolis Center
04:05PM 44.8564 -93.1617 302° West 129 148 1,500 -720 Descending Minneapolis Center
04:07PM 44.8667 -93.2167 270° West  Level FlightAware Approximate
04:14PM 44.8820 -93.2218 270° West  Level Estimated